European Highlander — C6SN6 — position and weather

sailwx.info

Track history (hours):
 
Tides and Currents Weather Stations Pressure Air Temp Water Temp Dewpoint Dewpoint Depression Visibility Wind Speed Wind Dir Waves Ship Positions

European Highlander

Operator: P&O Irish Sea Ltd

Last reported at 2019-Jul-23 20:17 UTC. Time now 2019-Jul-23 23:05 UTC.
Position N 55°01' W 005°11'.

Length 161 m; draft 5.5 m.

Type: Ship (hazmat cat B). MMSI: 311404000.

Date/timePositionNaut miles runAvg speedWind from/ knotsBaromVisibWave heightAir tempDewpointWater temp
2019-Jul-23 20:17N 55°01' W 005°11'518.9
2019-Jul-23 20:00N 54°59' W 005°20'918.4
2019-Jul-23 19:30N 54°55' W 005°34'916.4
2019-Jul-23 18:59N 54°51' W 005°48'0 0.3
2019-Jul-23 18:30N 54°51' W 005°48'0 0.0
2019-Jul-23 18:00N 54°51' W 005°48'0 0.0
2019-Jul-23 17:30N 54°51' W 005°48'711.9
2019-Jul-23 16:52N 54°55' W 005°37'818.9
2019-Jul-23 16:29N 54°58' W 005°25'7 2.9
2019-Jul-23 13:54N 55°01' W 005°13'1121.9
2019-Jul-23 13:24N 54°56' W 005°30'1220.2
2019-Jul-23 12:50N 54°51' W 005°48'0 0.2
2019-Jul-23 12:16N 54°51' W 005°48'0 0.0
2019-Jul-23 11:52N 54°51' W 005°48'0 0.1
2019-Jul-23 11:29N 54°51' W 005°48'1216.0
2019-Jul-23 10:43N 54°56' W 005°28'719.9
2019-Jul-23 10:23N 54°59' W 005°18'5 1.8
2019-Jul-23 07:49N 55°01' W 005°11'718.6
2019-Jul-23 07:26N 54°58' W 005°22'918.1
2019-Jul-23 06:56N 54°54' W 005°36'716.0
2019-Jul-23 06:29N 54°51' W 005°48'0 0.4
2019-Jul-23 05:57N 54°51' W 005°48'0 0.0
2019-Jul-23 05:09N 54°51' W 005°48'0 0.0
2019-Jul-23 05:00N 54°51' W 005°48'1012.2
2019-Jul-23 04:13N 54°56' W 005°34'518.2
2019-Jul-23 03:58N 54°58' W 005°27'817.8
2019-Jul-23 03:30N 55°02' W 005°14'2 0.6
2019-Jul-23 00:03N 54°60' W 005°14'118.1
2019-Jul-23 00:00N 54°59' W 005°16'1318.7
2019-Jul-22 23:20N 54°54' W 005°36'817.0
2019-Jul-22 22:53N 54°51' W 005°48'0 0.3
2019-Jul-22 22:27N 54°51' W 005°48'0 0.0
2019-Jul-22 21:57N 54°51' W 005°48'0 0.0
2019-Jul-22 21:21N 54°51' W 005°48'0 0.1
2019-Jul-22 20:46N 54°51' W 005°48'1516.2
2019-Jul-22 19:52N 54°58' W 005°25'617.0
2019-Jul-22 19:30N 55°00' W 005°16'2 0.8
2019-Jul-22 16:51N 55°01' W 005°12'820.9
2019-Jul-22 16:29N 54°57' W 005°24'1219.9
2019-Jul-22 15:54N 54°53' W 005°43'3 7.5
2019-Jul-22 15:27N 54°51' W 005°48'0 0.0
2019-Jul-22 14:25N 54°51' W 005°48'21 5.7
2019-Jul-22 10:41N 54°60' W 005°15'1221.1
2019-Jul-22 10:08N 54°55' W 005°33'321.6
2019-Jul-22 10:00N 54°54' W 005°38'611.7
2019-Jul-22 09:27N 54°51' W 005°48'0 0.0
2019-Jul-22 08:27N 54°51' W 005°48'21 5.1
2019-Jul-22 04:15N 55°00' W 005°14'618.4
2019-Jul-22 03:55N 54°57' W 005°24'817.2
2019-Jul-22 03:27N 54°54' W 005°37'715.4
2019-Jul-22 03:00N 54°51' W 005°48'0 0.2
2019-Jul-22 02:27N 54°51' W 005°48'0 0.0
2019-Jul-22 01:57N 54°51' W 005°48'0 0.0
2019-Jul-22 01:30N 54°51' W 005°48'0 0.0
2019-Jul-22 01:00N 54°51' W 005°48'2013.4
2019-Jul-21 23:29N 54°60' W 005°16'2 0.6
2019-Jul-21 20:12N 55°01' W 005°13'1620.7
2019-Jul-21 19:26N 54°54' W 005°38'615.0
2019-Jul-21 19:00N 54°51' W 005°48'0 0.2
2019-Jul-21 18:18N 54°51' W 005°48'0 0.0
2019-Jul-21 17:54N 54°51' W 005°48'0 0.0
2019-Jul-21 17:30N 54°51' W 005°48'1514.6
2019-Jul-21 16:29N 54°58' W 005°26'7 2.4
2019-Jul-21 13:39N 55°01' W 005°15'1220.6
2019-Jul-21 13:03N 54°55' W 005°33'220.8
2019-Jul-21 12:56N 54°54' W 005°37'715.3
2019-Jul-21 12:30N 54°51' W 005°48'0 0.1
2019-Jul-21 11:32N 54°51' W 005°48'0 0.6
2019-Jul-21 11:29N 54°51' W 005°48'1516.0
2019-Jul-21 10:33N 54°58' W 005°25'618.6
2019-Jul-21 10:15N 55°00' W 005°16'2 1.0
2019-Jul-21 07:47N 55°01' W 005°12'718.6
2019-Jul-21 07:26N 54°58' W 005°22'1018.7
2019-Jul-21 06:55N 54°54' W 005°38'715.5
2019-Jul-21 06:30N 54°51' W 005°48'0 0.2
2019-Jul-21 05:52N 54°51' W 005°48'0 0.0
2019-Jul-21 05:22N 54°51' W 005°48'0 0.0
2019-Jul-21 04:55N 54°51' W 005°48'0 0.0
2019-Jul-21 04:25N 54°51' W 005°48'0 0.0
2019-Jul-21 03:58N 54°51' W 005°48'0 0.0
2019-Jul-21 03:28N 54°51' W 005°48'0 0.0
2019-Jul-21 02:58N 54°51' W 005°48'0 0.0
2019-Jul-21 02:25N 54°51' W 005°48'0 0.0
2019-Jul-21 01:58N 54°51' W 005°48'0 0.0
2019-Jul-21 01:25N 54°51' W 005°48'0 0.0
2019-Jul-21 00:55N 54°51' W 005°48'0 0.0
2019-Jul-21 00:28N 54°51' W 005°48'0 0.0
2019-Jul-20 23:46N 54°51' W 005°48'0 0.0
2019-Jul-20 23:28N 54°51' W 005°48'0 0.0
2019-Jul-20 22:58N 54°51' W 005°48'0 0.0
2019-Jul-20 21:46N 54°51' W 005°48'0 0.0
2019-Jul-20 21:28N 54°51' W 005°48'0 0.0
2019-Jul-20 20:53N 54°51' W 005°48'10 0.9
2019-Jul-20 10:05N 54°55' W 005°33'518.9
2019-Jul-20 09:49N 54°53' W 005°41'414.1
2019-Jul-20 09:31N 54°51' W 005°48'0 0.1
2019-Jul-20 08:43N 54°51' W 005°48'0 0.0
2019-Jul-20 08:26N 54°51' W 005°48'3 6.9
2019-Jul-20 08:00N 54°53' W 005°44'20 5.1
2019-Jul-20 04:08N 55°00' W 005°12'618.4
2019-Jul-20 03:49N 54°58' W 005°21'1017.1
2019-Jul-20 03:14N 54°54' W 005°37'715.0
2019-Jul-20 02:47N 54°51' W 005°48'0 0.3
2019-Jul-20 02:23N 54°51' W 005°48'0 0.0
2019-Jul-20 01:50N 54°51' W 005°48'0 0.0
2019-Jul-20 01:23N 54°51' W 005°48'0 0.0
2019-Jul-20 00:56N 54°51' W 005°48'21 4.4
2019-Jul-19 20:09N 54°60' W 005°14'1518.8
2019-Jul-19 19:22N 54°54' W 005°38'615.2
2019-Jul-19 18:57N 54°51' W 005°48'0 0.3
2019-Jul-19 18:23N 54°51' W 005°48'0 0.0
2019-Jul-19 17:30N 54°51' W 005°48'2015.5
2019-Jul-19 16:11N 55°00' W 005°16'1 0.5
2019-Jul-19 13:43N 55°01' W 005°15'1320.9
2019-Jul-19 13:04N 54°54' W 005°35'120.7
2019-Jul-19 13:00N 54°54' W 005°37'713.9
2019-Jul-19 12:30N 54°51' W 005°48'0 0.0
2019-Jul-19 11:59N 54°51' W 005°48'0 0.0
2019-Jul-19 11:30N 54°51' W 005°48'5 9.8
2019-Jul-19 11:00N 54°53' W 005°41'18 5.6
2019-Jul-19 07:45N 55°01' W 005°12'718.1
2019-Jul-19 07:20N 54°57' W 005°23'619.0
2019-Jul-19 07:00N 54°55' W 005°34'917.8
2019-Jul-19 06:30N 54°51' W 005°48'0 0.8
2019-Jul-19 05:58N 54°51' W 005°48'0 0.0
2019-Jul-19 05:28N 54°51' W 005°48'0 0.0
2019-Jul-19 04:56N 54°51' W 005°48'4 9.0
2019-Jul-19 04:29N 54°53' W 005°42'1118.9
2019-Jul-19 03:54N 54°58' W 005°25'8 2.2
2019-Jul-19 00:15N 55°01' W 005°12'618.6
2019-Jul-18 23:54N 54°58' W 005°22'718.8
2019-Jul-18 23:30N 54°55' W 005°34'917.0
2019-Jul-18 22:59N 54°51' W 005°48'0 0.3
2019-Jul-18 22:30N 54°51' W 005°48'0 0.0
2019-Jul-18 22:00N 54°51' W 005°48'0 0.0
2019-Jul-18 21:30N 54°51' W 005°48'0 0.0
2019-Jul-18 21:00N 54°51' W 005°48'2114.4
2019-Jul-18 19:33N 55°00' W 005°15'1 0.4
2019-Jul-18 16:42N 55°00' W 005°13'521.3
2019-Jul-18 16:26N 54°58' W 005°22'1020.5
2019-Jul-18 15:57N 54°53' W 005°37'712.0
2019-Jul-18 15:24N 54°51' W 005°48'0 0.0
2019-Jul-18 14:54N 54°51' W 005°48'0 0.0
2019-Jul-18 14:27N 54°51' W 005°48'511.7
2019-Jul-18 14:00N 54°54' W 005°40'919.1
2019-Jul-18 13:30N 54°58' W 005°25'7 2.7
2019-Jul-18 10:46N 55°00' W 005°13'1218.7
2019-Jul-18 10:08N 54°55' W 005°31'319.1
2019-Jul-18 09:59N 54°54' W 005°36'715.5
2019-Jul-18 09:31N 54°51' W 005°48'0 0.1
2019-Jul-18 08:59N 54°51' W 005°48'0 0.0
2019-Jul-18 08:29N 54°51' W 005°48'912.9
2019-Jul-18 07:46N 54°56' W 005°34'1218.0
2019-Jul-18 07:07N 55°00' W 005°15'1 0.3
2019-Jul-18 04:14N 54°60' W 005°14'518.9
2019-Jul-18 03:59N 54°58' W 005°22'918.3
2019-Jul-18 03:30N 54°54' W 005°36'815.5
2019-Jul-18 03:01N 54°51' W 005°48'0 0.2
2019-Jul-18 02:28N 54°51' W 005°48'0 0.0
2019-Jul-18 01:52N 54°51' W 005°48'0 0.0
2019-Jul-18 01:25N 54°51' W 005°48'0 0.0
2019-Jul-18 00:58N 54°51' W 005°48'2115.2
2019-Jul-17 23:35N 55°00' W 005°15'1 0.3
2019-Jul-17 20:13N 54°60' W 005°14'1618.5
2019-Jul-17 19:21N 54°53' W 005°40'515.5
2019-Jul-17 19:00N 54°51' W 005°48'0 0.1
2019-Jul-17 18:16N 54°51' W 005°48'0 0.0
2019-Jul-17 17:58N 54°51' W 005°48'0 0.1
2019-Jul-17 17:29N 54°51' W 005°48'1515.7
2019-Jul-17 16:33N 54°59' W 005°26'617.3
2019-Jul-17 16:14N 55°01' W 005°17'3 1.1
2019-Jul-17 13:47N 55°01' W 005°12'721.7
2019-Jul-17 13:28N 54°58' W 005°22'1220.2
2019-Jul-17 12:52N 54°53' W 005°42'410.5
2019-Jul-17 12:30N 54°51' W 005°48'0 0.0
2019-Jul-17 11:59N 54°51' W 005°48'0 0.0
2019-Jul-17 11:27N 54°51' W 005°48'1518.3
2019-Jul-17 10:38N 54°58' W 005°25'622.3
2019-Jul-17 10:22N 55°00' W 005°16'1 0.4
2019-Jul-17 07:36N 54°60' W 005°14'1518.8
2019-Jul-17 06:49N 54°54' W 005°37'716.5
2019-Jul-17 06:25N 54°51' W 005°48'0 0.3
2019-Jul-17 05:53N 54°51' W 005°48'0 0.0
2019-Jul-17 05:02N 54°51' W 005°48'0 0.0
2019-Jul-17 05:00N 54°51' W 005°48'5 9.6
2019-Jul-17 04:27N 54°54' W 005°41'918.7
2019-Jul-17 03:57N 54°58' W 005°26'8 2.2
2019-Jul-17 00:08N 55°01' W 005°12'321.3
2019-Jul-17 00:00N 54°59' W 005°17'1020.7
2019-Jul-16 23:30N 54°55' W 005°33'918.7
2019-Jul-16 23:00N 54°51' W 005°48'0 0.3
2019-Jul-16 22:22N 54°51' W 005°48'0 0.0
2019-Jul-16 21:22N 54°51' W 005°48'0 0.0
2019-Jul-16 21:00N 54°51' W 005°48'712.4
2019-Jul-16 20:25N 54°55' W 005°37'1417.3
2019-Jul-16 19:37N 55°01' W 005°15'2 0.7
2019-Jul-16 16:53N 55°01' W 005°12'820.7
2019-Jul-16 16:30N 54°57' W 005°24'1519.4
2019-Jul-16 15:44N 54°51' W 005°48'0 1.3
2019-Jul-16 15:30N 54°51' W 005°48'0 0.0
2019-Jul-16 14:54N 54°51' W 005°48'0 0.0
2019-Jul-16 14:30N 54°51' W 005°48'612.4
2019-Jul-16 14:00N 54°54' W 005°39'1019.1
2019-Jul-16 13:30N 54°59' W 005°25'7 2.8
2019-Jul-16 10:50N 55°01' W 005°12'820.7
2019-Jul-16 10:28N 54°57' W 005°24'918.2
2019-Jul-16 09:59N 54°54' W 005°38'613.1
2019-Jul-16 09:30N 54°51' W 005°48'0 0.1
2019-Jul-16 08:58N 54°51' W 005°48'0 0.0
2019-Jul-16 08:30N 54°51' W 005°48'4 9.0
2019-Jul-16 08:00N 54°53' W 005°42'1017.2
2019-Jul-16 07:26N 54°58' W 005°26'10 3.1
2019-Jul-16 04:19N 55°01' W 005°10'818.3
2019-Jul-16 03:55N 54°57' W 005°22'918.2
2019-Jul-16 03:24N 54°54' W 005°37'716.2
2019-Jul-16 02:58N 54°51' W 005°48'0 0.3
2019-Jul-16 02:25N 54°51' W 005°48'0 0.0
2019-Jul-16 01:58N 54°51' W 005°48'0 0.0
2019-Jul-16 01:16N 54°51' W 005°48'0 0.0
2019-Jul-16 00:58N 54°51' W 005°48'6 8.1
2019-Jul-16 00:16N 54°54' W 005°40'919.4
2019-Jul-15 23:48N 54°58' W 005°25'518.7
2019-Jul-15 23:30N 55°00' W 005°17'4 1.1
2019-Jul-15 20:16N 55°01' W 005°11'717.5
2019-Jul-15 19:51N 54°58' W 005°22'1617.6
2019-Jul-15 18:56N 54°51' W 005°48'0 0.2
2019-Jul-15 18:25N 54°51' W 005°48'0 0.0
2019-Jul-15 17:49N 54°51' W 005°48'0 0.1
2019-Jul-15 17:30N 54°51' W 005°48'815.9
2019-Jul-15 17:00N 54°55' W 005°36'1020.2
2019-Jul-15 16:30N 54°59' W 005°20'6 2.4
2019-Jul-15 13:58N 55°01' W 005°10'1022.0
2019-Jul-15 13:30N 54°56' W 005°25'1419.2
2019-Jul-15 12:47N 54°51' W 005°48'0 0.2
2019-Jul-15 11:58N 54°51' W 005°48'0 0.0
2019-Jul-15 11:28N 54°51' W 005°48'22 6.0
2019-Jul-15 07:48N 55°00' W 005°13'717.2
2019-Jul-15 07:24N 54°57' W 005°24'818.6
2019-Jul-15 07:00N 54°54' W 005°36'714.6
2019-Jul-15 06:29N 54°51' W 005°48'0 0.2
2019-Jul-15 05:56N 54°51' W 005°48'0 0.0
2019-Jul-15 05:29N 54°51' W 005°48'0 0.0
2019-Jul-15 04:54N 54°51' W 005°48'2 6.1
2019-Jul-15 04:30N 54°53' W 005°45'918.1
2019-Jul-15 04:00N 54°57' W 005°31'1018.3
2019-Jul-15 03:29N 55°01' W 005°16'3 1.0
2019-Jul-15 00:23N 55°01' W 005°11'719.0
2019-Jul-15 00:00N 54°58' W 005°23'918.0
2019-Jul-14 23:30N 54°55' W 005°37'714.8
2019-Jul-14 23:00N 54°51' W 005°48'0 0.2
2019-Jul-14 22:30N 54°51' W 005°48'0 0.0
2019-Jul-14 22:00N 54°51' W 005°48'0 0.0
2019-Jul-14 21:30N 54°51' W 005°48'0 0.0
2019-Jul-14 21:00N 54°51' W 005°48'2 4.8
2019-Jul-14 20:30N 54°52' W 005°45'917.9
2019-Jul-14 20:00N 54°56' W 005°31'13 4.0
2019-Jul-14 16:52N 55°01' W 005°11'719.7
2019-Jul-14 16:31N 54°58' W 005°21'1020.8
2019-Jul-14 16:00N 54°54' W 005°38'611.6
2019-Jul-14 15:27N 54°51' W 005°48'0 0.0
2019-Jul-14 14:56N 54°51' W 005°48'0 0.0
2019-Jul-14 14:26N 54°51' W 005°48'4 9.5
2019-Jul-14 14:00N 54°53' W 005°42'918.1
2019-Jul-14 13:30N 54°57' W 005°28'12 4.5
2019-Jul-14 10:57N 55°01' W 005°09'921.2
2019-Jul-14 10:30N 54°57' W 005°24'1120.3
2019-Jul-14 09:59N 54°53' W 005°41'4 9.3
2019-Jul-14 09:30N 54°51' W 005°48'0 0.0
2019-Jul-14 08:51N 54°51' W 005°48'0 0.0
2019-Jul-14 08:20N 54°51' W 005°48'611.9
2019-Jul-14 07:49N 54°54' W 005°39'621.0
2019-Jul-14 07:30N 54°57' W 005°29'  
Track history (hours):
 
Tides and Currents Weather Stations Pressure Air Temp Water Temp Dewpoint Dewpoint Depression Visibility Wind Speed Wind Dir Waves Ship Positions

European Highlander

Operator: P&O Irish Sea Ltd

Last reported at 2019-Jul-23 20:17 UTC. Time now 2019-Jul-23 23:05 UTC.
Position N 55°01' W 005°11'.

Length 161 m; draft 5.5 m.

Type: Ship (hazmat cat B). MMSI: 311404000.

Date/timePositionNaut miles runAvg speedWind from/ knotsBaromVisibWave heightAir tempDewpointWater temp
2019-Jul-23 20:17N 55°01' W 005°11'518.9
2019-Jul-23 20:00N 54°59' W 005°20'918.4
2019-Jul-23 19:30N 54°55' W 005°34'916.4
2019-Jul-23 18:59N 54°51' W 005°48'0 0.3
2019-Jul-23 18:30N 54°51' W 005°48'0 0.0
2019-Jul-23 18:00N 54°51' W 005°48'0 0.0
2019-Jul-23 17:30N 54°51' W 005°48'711.9
2019-Jul-23 16:52N 54°55' W 005°37'818.9
2019-Jul-23 16:29N 54°58' W 005°25'7 2.9
2019-Jul-23 13:54N 55°01' W 005°13'1121.9
2019-Jul-23 13:24N 54°56' W 005°30'1220.2
2019-Jul-23 12:50N 54°51' W 005°48'0 0.2
2019-Jul-23 12:16N 54°51' W 005°48'0 0.0
2019-Jul-23 11:52N 54°51' W 005°48'0 0.1
2019-Jul-23 11:29N 54°51' W 005°48'1216.0
2019-Jul-23 10:43N 54°56' W 005°28'719.9
2019-Jul-23 10:23N 54°59' W 005°18'5 1.8
2019-Jul-23 07:49N 55°01' W 005°11'718.6
2019-Jul-23 07:26N 54°58' W 005°22'918.1
2019-Jul-23 06:56N 54°54' W 005°36'716.0
2019-Jul-23 06:29N 54°51' W 005°48'0 0.4
2019-Jul-23 05:57N 54°51' W 005°48'0 0.0
2019-Jul-23 05:09N 54°51' W 005°48'0 0.0
2019-Jul-23 05:00N 54°51' W 005°48'1012.2
2019-Jul-23 04:13N 54°56' W 005°34'518.2
2019-Jul-23 03:58N 54°58' W 005°27'817.8
2019-Jul-23 03:30N 55°02' W 005°14'2 0.6
2019-Jul-23 00:03N 54°60' W 005°14'118.1
2019-Jul-23 00:00N 54°59' W 005°16'1318.7
2019-Jul-22 23:20N 54°54' W 005°36'817.0
2019-Jul-22 22:53N 54°51' W 005°48'0 0.3
2019-Jul-22 22:27N 54°51' W 005°48'0 0.0
2019-Jul-22 21:57N 54°51' W 005°48'0 0.0
2019-Jul-22 21:21N 54°51' W 005°48'0 0.1
2019-Jul-22 20:46N 54°51' W 005°48'1516.2
2019-Jul-22 19:52N 54°58' W 005°25'617.0
2019-Jul-22 19:30N 55°00' W 005°16'2 0.8
2019-Jul-22 16:51N 55°01' W 005°12'820.9
2019-Jul-22 16:29N 54°57' W 005°24'1219.9
2019-Jul-22 15:54N 54°53' W 005°43'3 7.5
2019-Jul-22 15:27N 54°51' W 005°48'0 0.0
2019-Jul-22 14:25N 54°51' W 005°48'21 5.7
2019-Jul-22 10:41N 54°60' W 005°15'1221.1
2019-Jul-22 10:08N 54°55' W 005°33'321.6
2019-Jul-22 10:00N 54°54' W 005°38'611.7
2019-Jul-22 09:27N 54°51' W 005°48'0 0.0
2019-Jul-22 08:27N 54°51' W 005°48'21 5.1
2019-Jul-22 04:15N 55°00' W 005°14'618.4
2019-Jul-22 03:55N 54°57' W 005°24'817.2
2019-Jul-22 03:27N 54°54' W 005°37'715.4
2019-Jul-22 03:00N 54°51' W 005°48'0 0.2
2019-Jul-22 02:27N 54°51' W 005°48'0 0.0
2019-Jul-22 01:57N 54°51' W 005°48'0 0.0
2019-Jul-22 01:30N 54°51' W 005°48'0 0.0
2019-Jul-22 01:00N 54°51' W 005°48'2013.4
2019-Jul-21 23:29N 54°60' W 005°16'2 0.6
2019-Jul-21 20:12N 55°01' W 005°13'1620.7
2019-Jul-21 19:26N 54°54' W 005°38'615.0
2019-Jul-21 19:00N 54°51' W 005°48'0 0.2
2019-Jul-21 18:18N 54°51' W 005°48'0 0.0
2019-Jul-21 17:54N 54°51' W 005°48'0 0.0
2019-Jul-21 17:30N 54°51' W 005°48'1514.6
2019-Jul-21 16:29N 54°58' W 005°26'7 2.4
2019-Jul-21 13:39N 55°01' W 005°15'1220.6
2019-Jul-21 13:03N 54°55' W 005°33'220.8
2019-Jul-21 12:56N 54°54' W 005°37'715.3
2019-Jul-21 12:30N 54°51' W 005°48'0 0.1
2019-Jul-21 11:32N 54°51' W 005°48'0 0.6
2019-Jul-21 11:29N 54°51' W 005°48'1516.0
2019-Jul-21 10:33N 54°58' W 005°25'618.6
2019-Jul-21 10:15N 55°00' W 005°16'2 1.0
2019-Jul-21 07:47N 55°01' W 005°12'718.6
2019-Jul-21 07:26N 54°58' W 005°22'1018.7
2019-Jul-21 06:55N 54°54' W 005°38'715.5
2019-Jul-21 06:30N 54°51' W 005°48'0 0.2
2019-Jul-21 05:52N 54°51' W 005°48'0 0.0
2019-Jul-21 05:22N 54°51' W 005°48'0 0.0
2019-Jul-21 04:55N 54°51' W 005°48'0 0.0
2019-Jul-21 04:25N 54°51' W 005°48'0 0.0
2019-Jul-21 03:58N 54°51' W 005°48'0 0.0
2019-Jul-21 03:28N 54°51' W 005°48'0 0.0
2019-Jul-21 02:58N 54°51' W 005°48'0 0.0
2019-Jul-21 02:25N 54°51' W 005°48'0 0.0
2019-Jul-21 01:58N 54°51' W 005°48'0 0.0
2019-Jul-21 01:25N 54°51' W 005°48'0 0.0
2019-Jul-21 00:55N 54°51' W 005°48'0 0.0
2019-Jul-21 00:28N 54°51' W 005°48'0 0.0
2019-Jul-20 23:46N 54°51' W 005°48'0 0.0
2019-Jul-20 23:28N 54°51' W 005°48'0 0.0
2019-Jul-20 22:58N 54°51' W 005°48'0 0.0
2019-Jul-20 21:46N 54°51' W 005°48'0 0.0
2019-Jul-20 21:28N 54°51' W 005°48'0 0.0
2019-Jul-20 20:53N 54°51' W 005°48'10 0.9
2019-Jul-20 10:05N 54°55' W 005°33'518.9
2019-Jul-20 09:49N 54°53' W 005°41'414.1
2019-Jul-20 09:31N 54°51' W 005°48'0 0.1
2019-Jul-20 08:43N 54°51' W 005°48'0 0.0
2019-Jul-20 08:26N 54°51' W 005°48'3 6.9
2019-Jul-20 08:00N 54°53' W 005°44'20 5.1
2019-Jul-20 04:08N 55°00' W 005°12'618.4
2019-Jul-20 03:49N 54°58' W 005°21'1017.1
2019-Jul-20 03:14N 54°54' W 005°37'715.0
2019-Jul-20 02:47N 54°51' W 005°48'0 0.3
2019-Jul-20 02:23N 54°51' W 005°48'0 0.0
2019-Jul-20 01:50N 54°51' W 005°48'0 0.0
2019-Jul-20 01:23N 54°51' W 005°48'0 0.0
2019-Jul-20 00:56N 54°51' W 005°48'21 4.4
2019-Jul-19 20:09N 54°60' W 005°14'1518.8
2019-Jul-19 19:22N 54°54' W 005°38'615.2
2019-Jul-19 18:57N 54°51' W 005°48'0 0.3
2019-Jul-19 18:23N 54°51' W 005°48'0 0.0
2019-Jul-19 17:30N 54°51' W 005°48'2015.5
2019-Jul-19 16:11N 55°00' W 005°16'1 0.5
2019-Jul-19 13:43N 55°01' W 005°15'1320.9
2019-Jul-19 13:04N 54°54' W 005°35'120.7
2019-Jul-19 13:00N 54°54' W 005°37'713.9
2019-Jul-19 12:30N 54°51' W 005°48'0 0.0
2019-Jul-19 11:59N 54°51' W 005°48'0 0.0
2019-Jul-19 11:30N 54°51' W 005°48'5 9.8
2019-Jul-19 11:00N 54°53' W 005°41'18 5.6
2019-Jul-19 07:45N 55°01' W 005°12'718.1
2019-Jul-19 07:20N 54°57' W 005°23'619.0
2019-Jul-19 07:00N 54°55' W 005°34'917.8
2019-Jul-19 06:30N 54°51' W 005°48'0 0.8
2019-Jul-19 05:58N 54°51' W 005°48'0 0.0
2019-Jul-19 05:28N 54°51' W 005°48'0 0.0
2019-Jul-19 04:56N 54°51' W 005°48'4 9.0
2019-Jul-19 04:29N 54°53' W 005°42'1118.9
2019-Jul-19 03:54N 54°58' W 005°25'8 2.2
2019-Jul-19 00:15N 55°01' W 005°12'618.6
2019-Jul-18 23:54N 54°58' W 005°22'718.8
2019-Jul-18 23:30N 54°55' W 005°34'917.0
2019-Jul-18 22:59N 54°51' W 005°48'0 0.3
2019-Jul-18 22:30N 54°51' W 005°48'0 0.0
2019-Jul-18 22:00N 54°51' W 005°48'0 0.0
2019-Jul-18 21:30N 54°51' W 005°48'0 0.0
2019-Jul-18 21:00N 54°51' W 005°48'2114.4
2019-Jul-18 19:33N 55°00' W 005°15'1 0.4
2019-Jul-18 16:42N 55°00' W 005°13'521.3
2019-Jul-18 16:26N 54°58' W 005°22'1020.5
2019-Jul-18 15:57N 54°53' W 005°37'712.0
2019-Jul-18 15:24N 54°51' W 005°48'0 0.0
2019-Jul-18 14:54N 54°51' W 005°48'0 0.0
2019-Jul-18 14:27N 54°51' W 005°48'511.7
2019-Jul-18 14:00N 54°54' W 005°40'919.1
2019-Jul-18 13:30N 54°58' W 005°25'7 2.7
2019-Jul-18 10:46N 55°00' W 005°13'1218.7
2019-Jul-18 10:08N 54°55' W 005°31'319.1
2019-Jul-18 09:59N 54°54' W 005°36'715.5
2019-Jul-18 09:31N 54°51' W 005°48'0 0.1
2019-Jul-18 08:59N 54°51' W 005°48'0 0.0
2019-Jul-18 08:29N 54°51' W 005°48'912.9
2019-Jul-18 07:46N 54°56' W 005°34'1218.0
2019-Jul-18 07:07N 55°00' W 005°15'1 0.3
2019-Jul-18 04:14N 54°60' W 005°14'518.9
2019-Jul-18 03:59N 54°58' W 005°22'918.3
2019-Jul-18 03:30N 54°54' W 005°36'815.5
2019-Jul-18 03:01N 54°51' W 005°48'0 0.2
2019-Jul-18 02:28N 54°51' W 005°48'0 0.0
2019-Jul-18 01:52N 54°51' W 005°48'0 0.0
2019-Jul-18 01:25N 54°51' W 005°48'0 0.0
2019-Jul-18 00:58N 54°51' W 005°48'2115.2
2019-Jul-17 23:35N 55°00' W 005°15'1 0.3
2019-Jul-17 20:13N 54°60' W 005°14'1618.5
2019-Jul-17 19:21N 54°53' W 005°40'515.5
2019-Jul-17 19:00N 54°51' W 005°48'0 0.1
2019-Jul-17 18:16N 54°51' W 005°48'0 0.0
2019-Jul-17 17:58N 54°51' W 005°48'0 0.1
2019-Jul-17 17:29N 54°51' W 005°48'1515.7
2019-Jul-17 16:33N 54°59' W 005°26'617.3
2019-Jul-17 16:14N 55°01' W 005°17'3 1.1
2019-Jul-17 13:47N 55°01' W 005°12'721.7
2019-Jul-17 13:28N 54°58' W 005°22'1220.2
2019-Jul-17 12:52N 54°53' W 005°42'410.5
2019-Jul-17 12:30N 54°51' W 005°48'0 0.0
2019-Jul-17 11:59N 54°51' W 005°48'0 0.0
2019-Jul-17 11:27N 54°51' W 005°48'1518.3
2019-Jul-17 10:38N 54°58' W 005°25'622.3
2019-Jul-17 10:22N 55°00' W 005°16'1 0.4
2019-Jul-17 07:36N 54°60' W 005°14'1518.8
2019-Jul-17 06:49N 54°54' W 005°37'716.5
2019-Jul-17 06:25N 54°51' W 005°48'0 0.3
2019-Jul-17 05:53N 54°51' W 005°48'0 0.0
2019-Jul-17 05:02N 54°51' W 005°48'0 0.0
2019-Jul-17 05:00N 54°51' W 005°48'5 9.6
2019-Jul-17 04:27N 54°54' W 005°41'918.7
2019-Jul-17 03:57N 54°58' W 005°26'8 2.2
2019-Jul-17 00:08N 55°01' W 005°12'321.3
2019-Jul-17 00:00N 54°59' W 005°17'1020.7
2019-Jul-16 23:30N 54°55' W 005°33'918.7
2019-Jul-16 23:00N 54°51' W 005°48'0 0.3
2019-Jul-16 22:22N 54°51' W 005°48'0 0.0
2019-Jul-16 21:22N 54°51' W 005°48'0 0.0
2019-Jul-16 21:00N 54°51' W 005°48'712.4
2019-Jul-16 20:25N 54°55' W 005°37'1417.3
2019-Jul-16 19:37N 55°01' W 005°15'2 0.7
2019-Jul-16 16:53N 55°01' W 005°12'820.7
2019-Jul-16 16:30N 54°57' W 005°24'1519.4
2019-Jul-16 15:44N 54°51' W 005°48'0 1.3
2019-Jul-16 15:30N 54°51' W 005°48'0 0.0
2019-Jul-16 14:54N 54°51' W 005°48'0 0.0
2019-Jul-16 14:30N 54°51' W 005°48'612.4
2019-Jul-16 14:00N 54°54' W 005°39'1019.1
2019-Jul-16 13:30N 54°59' W 005°25'7 2.8
2019-Jul-16 10:50N 55°01' W 005°12'820.7
2019-Jul-16 10:28N 54°57' W 005°24'918.2
2019-Jul-16 09:59N 54°54' W 005°38'613.1
2019-Jul-16 09:30N 54°51' W 005°48'0 0.1
2019-Jul-16 08:58N 54°51' W 005°48'0 0.0
2019-Jul-16 08:30N 54°51' W 005°48'4 9.0
2019-Jul-16 08:00N 54°53' W 005°42'1017.2
2019-Jul-16 07:26N 54°58' W 005°26'10 3.1
2019-Jul-16 04:19N 55°01' W 005°10'818.3
2019-Jul-16 03:55N 54°57' W 005°22'918.2
2019-Jul-16 03:24N 54°54' W 005°37'716.2
2019-Jul-16 02:58N 54°51' W 005°48'0 0.3
2019-Jul-16 02:25N 54°51' W 005°48'0 0.0
2019-Jul-16 01:58N 54°51' W 005°48'0 0.0
2019-Jul-16 01:16N 54°51' W 005°48'0 0.0
2019-Jul-16 00:58N 54°51' W 005°48'6 8.1
2019-Jul-16 00:16N 54°54' W 005°40'919.4
2019-Jul-15 23:48N 54°58' W 005°25'518.7
2019-Jul-15 23:30N 55°00' W 005°17'4 1.1
2019-Jul-15 20:16N 55°01' W 005°11'717.5
2019-Jul-15 19:51N 54°58' W 005°22'1617.6
2019-Jul-15 18:56N 54°51' W 005°48'0 0.2
2019-Jul-15 18:25N 54°51' W 005°48'0 0.0
2019-Jul-15 17:49N 54°51' W 005°48'0 0.1
2019-Jul-15 17:30N 54°51' W 005°48'815.9
2019-Jul-15 17:00N 54°55' W 005°36'1020.2
2019-Jul-15 16:30N 54°59' W 005°20'6 2.4
2019-Jul-15 13:58N 55°01' W 005°10'1022.0
2019-Jul-15 13:30N 54°56' W 005°25'1419.2
2019-Jul-15 12:47N 54°51' W 005°48'0 0.2
2019-Jul-15 11:58N 54°51' W 005°48'0 0.0
2019-Jul-15 11:28N 54°51' W 005°48'22 6.0
2019-Jul-15 07:48N 55°00' W 005°13'717.2
2019-Jul-15 07:24N 54°57' W 005°24'818.6
2019-Jul-15 07:00N 54°54' W 005°36'714.6
2019-Jul-15 06:29N 54°51' W 005°48'0 0.2
2019-Jul-15 05:56N 54°51' W 005°48'0 0.0
2019-Jul-15 05:29N 54°51' W 005°48'0 0.0
2019-Jul-15 04:54N 54°51' W 005°48'2 6.1
2019-Jul-15 04:30N 54°53' W 005°45'918.1
2019-Jul-15 04:00N 54°57' W 005°31'1018.3
2019-Jul-15 03:29N 55°01' W 005°16'3 1.0
2019-Jul-15 00:23N 55°01' W 005°11'719.0
2019-Jul-15 00:00N 54°58' W 005°23'918.0
2019-Jul-14 23:30N 54°55' W 005°37'714.8
2019-Jul-14 23:00N 54°51' W 005°48'0 0.2
2019-Jul-14 22:30N 54°51' W 005°48'0 0.0
2019-Jul-14 22:00N 54°51' W 005°48'0 0.0
2019-Jul-14 21:30N 54°51' W 005°48'0 0.0
2019-Jul-14 21:00N 54°51' W 005°48'2 4.8
2019-Jul-14 20:30N 54°52' W 005°45'917.9
2019-Jul-14 20:00N 54°56' W 005°31'13 4.0
2019-Jul-14 16:52N 55°01' W 005°11'719.7
2019-Jul-14 16:31N 54°58' W 005°21'1020.8
2019-Jul-14 16:00N 54°54' W 005°38'611.6
2019-Jul-14 15:27N 54°51' W 005°48'0 0.0
2019-Jul-14 14:56N 54°51' W 005°48'0 0.0
2019-Jul-14 14:26N 54°51' W 005°48'4 9.5
2019-Jul-14 14:00N 54°53' W 005°42'918.1
2019-Jul-14 13:30N 54°57' W 005°28'12 4.5
2019-Jul-14 10:57N 55°01' W 005°09'921.2
2019-Jul-14 10:30N 54°57' W 005°24'1120.3
2019-Jul-14 09:59N 54°53' W 005°41'4 9.3
2019-Jul-14 09:30N 54°51' W 005°48'0 0.0
2019-Jul-14 08:51N 54°51' W 005°48'0 0.0
2019-Jul-14 08:20N 54°51' W 005°48'611.9
2019-Jul-14 07:49N 54°54' W 005°39'621.0
2019-Jul-14 07:30N 54°57' W 005°29'  

Dump ship's entire track history